createdAt,value
2022-09-03T00:00:00.688Z,22.10
2022-09-03T00:02:45.893Z,22.10
2022-09-03T00:05:34.483Z,22.10
2022-09-03T00:08:04.057Z,22.00
2022-09-03T00:10:58.397Z,22.10
2022-09-03T00:13:57.528Z,22.00
2022-09-03T00:16:30.185Z,21.90
2022-09-03T00:19:01.889Z,21.90
2022-09-03T00:21:41.084Z,21.90
2022-09-03T00:24:15.028Z,21.90
2022-09-03T00:26:46.813Z,21.90
2022-09-03T00:29:27.601Z,21.90
2022-09-03T00:32:01.779Z,21.90
2022-09-03T00:34:39.417Z,21.80
2022-09-03T00:37:14.322Z,21.80
2022-09-03T00:39:43.380Z,21.80
2022-09-03T00:42:33.933Z,21.80
2022-09-03T00:45:25.499Z,21.80
2022-09-03T00:48:33.548Z,21.80
2022-09-03T00:51:20.091Z,21.80
2022-09-03T00:54:06.660Z,21.90
2022-09-03T00:57:12.292Z,21.90
2022-09-03T00:59:52.201Z,21.90
2022-09-03T01:02:28.764Z,21.90
2022-09-03T01:05:07.818Z,21.80
2022-09-03T01:07:40.612Z,21.80
2022-09-03T01:10:07.810Z,21.70
2022-09-03T01:12:42.580Z,21.60
2022-09-03T01:15:22.562Z,21.60
2022-09-03T01:18:15.467Z,21.60
2022-09-03T01:20:42.487Z,21.60
2022-09-03T01:23:22.050Z,21.50
2022-09-03T01:26:10.101Z,21.50
2022-09-03T01:28:49.086Z,21.50
2022-09-03T01:31:48.316Z,21.40
2022-09-03T01:34:33.045Z,21.50
2022-09-03T01:37:25.731Z,21.40
2022-09-03T01:40:06.569Z,21.50
2022-09-03T01:43:07.231Z,21.40
2022-09-03T01:45:51.356Z,21.50
2022-09-03T01:48:19.617Z,21.50
2022-09-03T01:50:50.936Z,21.50
2022-09-03T01:53:23.865Z,21.50
2022-09-03T01:56:17.870Z,21.50
2022-09-03T01:58:55.197Z,21.60
2022-09-03T02:01:36.895Z,21.60
2022-09-03T02:04:20.090Z,21.60
2022-09-03T02:06:48.939Z,21.60
2022-09-03T02:09:17.600Z,21.70
2022-09-03T02:11:51.821Z,21.60
2022-09-03T02:14:20.970Z,21.70
2022-09-03T02:16:47.906Z,21.60
2022-09-03T02:19:17.402Z,21.70
2022-09-03T02:21:51.260Z,21.70
2022-09-03T02:24:19.082Z,21.60
2022-09-03T02:26:46.904Z,21.60
2022-09-03T02:29:15.967Z,21.60
2022-09-03T02:31:44.357Z,21.60
2022-09-03T02:34:11.623Z,21.60
2022-09-03T02:36:48.426Z,21.60
2022-09-03T02:39:17.218Z,21.60
2022-09-03T02:41:44.887Z,21.60
2022-09-03T02:44:27.245Z,21.60
2022-09-03T02:47:03.601Z,21.60
2022-09-03T02:49:31.800Z,21.60
2022-09-03T02:52:01.545Z,21.60
2022-09-03T02:54:28.988Z,21.70
2022-09-03T02:56:56.351Z,21.70
2022-09-03T02:59:23.402Z,21.70
2022-09-03T03:01:51.809Z,21.70
2022-09-03T03:04:18.947Z,21.70
2022-09-03T03:06:47.695Z,21.70
2022-09-03T03:09:15.391Z,21.70
2022-09-03T03:11:42.543Z,21.70
2022-09-03T03:14:09.912Z,21.60
2022-09-03T03:16:37.080Z,21.60
2022-09-03T03:19:04.285Z,21.60
2022-09-03T03:21:32.011Z,21.60
2022-09-03T03:23:59.189Z,21.60
2022-09-03T03:26:26.387Z,21.50
2022-09-03T03:29:00.997Z,21.50
2022-09-03T03:31:28.369Z,21.50
2022-09-03T03:33:57.470Z,21.50
2022-09-03T03:36:27.207Z,21.40
2022-09-03T03:38:58.553Z,21.50
2022-09-03T03:41:33.957Z,21.50
2022-09-03T03:44:04.027Z,21.50
2022-09-03T03:46:34.403Z,21.50
2022-09-03T03:49:01.673Z,21.50
2022-09-03T03:51:30.489Z,21.50
2022-09-03T03:54:01.006Z,21.50
2022-09-03T03:56:30.600Z,21.50
2022-09-03T03:58:59.842Z,21.50
2022-09-03T04:01:28.202Z,21.50
2022-09-03T04:03:56.709Z,21.40
2022-09-03T04:06:24.138Z,21.50
2022-09-03T04:08:51.200Z,21.50
2022-09-03T04:11:24.156Z,21.50
2022-09-03T04:13:51.862Z,21.40
2022-09-03T04:16:21.603Z,21.40
2022-09-03T04:18:49.470Z,21.30
2022-09-03T04:21:26.614Z,21.30
2022-09-03T04:23:56.756Z,21.40
2022-09-03T04:26:32.424Z,21.30
2022-09-03T04:29:03.689Z,21.30
2022-09-03T04:31:31.772Z,21.20
2022-09-03T04:33:58.903Z,21.20
2022-09-03T04:36:28.415Z,21.20
2022-09-03T04:38:58.735Z,21.20
2022-09-03T04:41:28.859Z,21.20
2022-09-03T04:43:58.371Z,21.20
2022-09-03T04:46:33.487Z,21.20
2022-09-03T04:49:01.911Z,21.20
2022-09-03T04:51:31.841Z,21.20
2022-09-03T04:54:01.807Z,21.20
2022-09-03T04:56:34.432Z,21.20
2022-09-03T04:59:07.144Z,21.20
2022-09-03T05:01:36.444Z,21.10
2022-09-03T05:04:05.039Z,21.10
2022-09-03T05:06:33.408Z,21.10
2022-09-03T05:09:00.632Z,21.10
2022-09-03T05:11:29.186Z,21.10
2022-09-03T05:13:58.356Z,21.10
2022-09-03T05:16:28.322Z,21.10
2022-09-03T05:18:59.059Z,21.10
2022-09-03T05:21:26.224Z,21.10
2022-09-03T05:23:53.722Z,21.10
2022-09-03T05:26:26.964Z,21.10
2022-09-03T05:29:02.383Z,21.10
2022-09-03T05:31:32.309Z,21.10
2022-09-03T05:34:02.964Z,21.10
2022-09-03T05:36:33.113Z,21.10
2022-09-03T05:39:00.350Z,21.20
2022-09-03T05:41:29.313Z,21.20
2022-09-03T05:43:58.823Z,21.10
2022-09-03T05:46:31.717Z,21.20
2022-09-03T05:49:00.633Z,21.20
2022-09-03T05:51:28.405Z,21.20
2022-09-03T05:53:55.709Z,21.10
2022-09-03T05:56:25.814Z,21.20
2022-09-03T05:58:55.452Z,21.20
2022-09-03T06:01:48.592Z,21.20
2022-09-03T06:04:20.458Z,21.20
2022-09-03T06:06:49.108Z,21.20
2022-09-03T06:09:19.080Z,21.20
2022-09-03T06:11:47.659Z,21.20
2022-09-03T06:14:18.151Z,21.30
2022-09-03T06:16:49.599Z,21.30
2022-09-03T06:19:17.647Z,21.30
2022-09-03T06:21:46.534Z,21.30
2022-09-03T06:24:27.866Z,21.30
2022-09-03T06:26:57.869Z,21.40
2022-09-03T06:29:25.118Z,21.30
2022-09-03T06:31:52.653Z,21.40
2022-09-03T06:34:20.134Z,21.50
2022-09-03T06:36:48.046Z,21.50
2022-09-03T06:39:14.974Z,21.60
2022-09-03T06:41:42.143Z,21.60
2022-09-03T06:44:13.414Z,21.60
2022-09-03T06:46:44.218Z,21.70
2022-09-03T06:49:12.158Z,21.70
2022-09-03T06:51:40.076Z,21.80
2022-09-03T06:54:09.136Z,21.80
2022-09-03T06:56:40.572Z,21.90
2022-09-03T06:59:11.128Z,21.90
2022-09-03T07:01:43.705Z,22.00
2022-09-03T07:04:13.925Z,22.00
2022-09-03T07:06:43.590Z,22.10
2022-09-03T07:09:12.623Z,22.10
2022-09-03T07:11:47.167Z,22.20
2022-09-03T07:14:17.462Z,22.30
2022-09-03T07:16:46.220Z,22.30
2022-09-03T07:19:13.829Z,22.20
2022-09-03T07:21:45.236Z,22.20
2022-09-03T07:24:15.323Z,22.30
2022-09-03T07:26:49.515Z,22.40
2022-09-03T07:29:20.816Z,22.50
2022-09-03T07:31:52.132Z,22.50
2022-09-03T07:34:20.472Z,22.60
2022-09-03T07:36:51.440Z,22.70
2022-09-03T07:39:19.390Z,22.70
2022-09-03T07:41:47.095Z,22.80
2022-09-03T07:44:16.307Z,22.80
2022-09-03T07:46:45.712Z,22.70
2022-09-03T07:49:13.026Z,22.60
2022-09-03T07:51:40.605Z,22.70
2022-09-03T07:54:11.277Z,22.80
2022-09-03T07:56:41.441Z,22.80
2022-09-03T07:59:10.714Z,22.90
2022-09-03T08:01:41.684Z,22.90
2022-09-03T08:04:10.139Z,22.80
2022-09-03T08:06:38.420Z,22.90
2022-09-03T08:09:08.268Z,23.00
2022-09-03T08:11:40.781Z,23.20
2022-09-03T08:14:10.787Z,23.30
2022-09-03T08:16:48.405Z,23.30
2022-09-03T08:19:20.778Z,23.30
2022-09-03T08:21:47.902Z,23.40
2022-09-03T08:24:21.147Z,23.40
2022-09-03T08:26:52.043Z,23.30
2022-09-03T08:29:20.823Z,23.20
2022-09-03T08:31:48.357Z,23.30
2022-09-03T08:34:18.178Z,23.30
2022-09-03T08:36:47.644Z,23.30
2022-09-03T08:39:15.624Z,23.30
2022-09-03T08:41:52.864Z,23.20
2022-09-03T08:44:37.732Z,23.10
2022-09-03T08:47:22.477Z,23.30
2022-09-03T08:49:58.166Z,23.30
2022-09-03T08:53:00.316Z,23.40
2022-09-03T08:55:36.623Z,23.50
2022-09-03T08:58:12.480Z,23.60
2022-09-03T09:01:01.961Z,23.60
2022-09-03T09:04:16.827Z,23.60
2022-09-03T09:07:11.046Z,23.60
2022-09-03T09:09:40.860Z,23.70
2022-09-03T09:12:16.346Z,23.90
2022-09-03T09:15:30.770Z,24.00
2022-09-03T09:18:33.915Z,24.20
2022-09-03T09:21:49.298Z,24.40
2022-09-03T09:24:30.229Z,24.50
2022-09-03T09:27:02.901Z,24.70
2022-09-03T09:29:34.204Z,24.70
2022-09-03T09:32:03.307Z,24.80
2022-09-03T09:34:35.891Z,24.90
2022-09-03T09:37:15.637Z,25.00
2022-09-03T09:39:58.688Z,25.00
2022-09-03T09:42:27.328Z,25.10
2022-09-03T09:44:55.687Z,25.30
2022-09-03T09:47:27.787Z,25.20
2022-09-03T09:49:58.309Z,25.30
2022-09-03T09:52:57.298Z,25.40
2022-09-03T09:55:29.325Z,25.40
2022-09-03T09:58:14.343Z,25.40
2022-09-03T10:00:43.669Z,25.60
2022-09-03T10:03:13.822Z,25.70
2022-09-03T10:05:42.702Z,25.80
2022-09-03T10:08:24.953Z,25.90
2022-09-03T10:10:52.527Z,26.00
2022-09-03T10:13:25.572Z,26.10
2022-09-03T10:15:56.351Z,26.20
2022-09-03T10:18:29.375Z,26.30
2022-09-03T10:21:20.530Z,26.40
2022-09-03T10:24:07.390Z,26.40
2022-09-03T10:26:37.260Z,26.30
2022-09-03T10:29:07.304Z,26.30
2022-09-03T10:31:52.217Z,26.30
2022-09-03T10:34:37.699Z,26.20
2022-09-03T10:37:46.219Z,26.20
2022-09-03T10:40:21.368Z,26.20
2022-09-03T10:43:05.141Z,26.10
2022-09-03T10:45:58.368Z,26.30
2022-09-03T10:49:14.246Z,26.50
2022-09-03T11:17:38.478Z,26.90
2022-09-03T11:20:21.601Z,26.80
2022-09-03T11:22:52.097Z,27.00
2022-09-03T11:25:23.987Z,27.00
2022-09-03T11:28:03.794Z,27.00
2022-09-03T11:30:47.659Z,26.90
2022-09-03T11:33:15.214Z,26.80
2022-09-03T11:35:43.571Z,26.70
2022-09-03T11:38:21.110Z,26.60
2022-09-03T11:41:14.312Z,26.60
2022-09-03T11:43:42.607Z,26.70
2022-09-03T11:46:31.880Z,26.70
2022-09-03T11:49:26.349Z,26.70
2022-09-03T11:52:04.957Z,26.70
2022-09-03T11:54:43.535Z,26.80
2022-09-03T11:57:14.817Z,26.80
2022-09-03T11:59:45.149Z,26.80
2022-09-03T12:02:30.348Z,26.90
2022-09-03T12:05:29.972Z,26.90
2022-09-03T12:08:21.415Z,27.10
2022-09-03T12:11:14.738Z,27.30
2022-09-03T12:14:00.714Z,27.30
2022-09-03T12:17:08.394Z,27.30
2022-09-03T12:19:56.013Z,27.50
2022-09-03T12:22:25.879Z,27.50
2022-09-03T12:24:52.820Z,27.40
2022-09-03T12:27:24.323Z,27.40
2022-09-03T12:30:02.551Z,27.40
2022-09-03T12:32:32.490Z,27.80
2022-09-03T12:38:10.534Z,27.90
2022-09-03T12:43:39.030Z,27.70
2022-09-03T12:46:15.843Z,27.70
2022-09-03T12:51:48.717Z,28.20
2022-09-03T12:54:17.692Z,28.40
2022-09-03T12:56:52.384Z,28.50
2022-09-03T12:59:21.745Z,28.20
2022-09-03T13:01:53.155Z,28.00
2022-09-03T13:04:30.210Z,28.10
2022-09-03T13:07:08.021Z,28.30
2022-09-03T13:09:39.322Z,28.50
2022-09-03T13:12:07.340Z,28.70
2022-09-03T13:14:47.646Z,29.00
2022-09-03T13:17:30.438Z,29.30
2022-09-03T13:20:20.840Z,29.00
2022-09-03T13:22:56.975Z,28.90
2022-09-03T13:25:46.438Z,28.80
2022-09-03T13:28:20.577Z,28.90
2022-09-03T13:30:57.881Z,29.20
2022-09-03T13:33:33.424Z,29.30
2022-09-03T13:36:29.078Z,29.30
2022-09-03T13:39:07.940Z,29.20
2022-09-03T13:41:41.105Z,29.30
2022-09-03T13:44:11.554Z,29.40
2022-09-03T13:47:02.620Z,29.40
2022-09-03T13:50:08.410Z,29.40
2022-09-03T13:52:45.455Z,29.20
2022-09-03T13:55:23.262Z,28.90
2022-09-03T13:58:01.495Z,28.70
2022-09-03T14:00:35.333Z,28.60
2022-09-03T14:03:35.660Z,28.60
2022-09-03T14:06:27.239Z,28.60
2022-09-03T14:09:05.111Z,28.60
2022-09-03T14:11:34.910Z,28.70
2022-09-03T14:14:39.135Z,29.10
2022-09-03T14:17:37.202Z,29.20
2022-09-03T14:20:28.565Z,29.20
2022-09-03T14:23:44.516Z,29.30
2022-09-03T14:26:38.559Z,29.60
2022-09-03T14:29:12.088Z,29.60
2022-09-03T14:31:52.479Z,29.90
2022-09-03T14:34:31.447Z,30.20
2022-09-03T14:37:08.819Z,30.20
2022-09-03T14:40:06.084Z,30.20
2022-09-03T14:42:52.516Z,30.10
2022-09-03T14:45:34.529Z,30.20
2022-09-03T14:48:01.542Z,30.00
2022-09-03T14:50:43.646Z,30.20
2022-09-03T14:53:56.871Z,30.30
2022-09-03T14:56:45.478Z,30.40
2022-09-03T14:59:31.187Z,30.70
2022-09-03T15:02:19.106Z,30.80
2022-09-03T15:05:11.976Z,30.50
2022-09-03T15:08:12.657Z,30.70
2022-09-03T15:10:55.843Z,31.00
2022-09-03T15:13:36.053Z,31.10
2022-09-03T15:16:18.617Z,31.10
2022-09-03T15:18:46.849Z,31.30
2022-09-03T15:21:19.667Z,31.40
2022-09-03T15:24:07.171Z,31.40
2022-09-03T15:27:00.273Z,31.50
2022-09-03T15:29:37.484Z,31.60
2022-09-03T15:32:26.955Z,31.60
2022-09-03T15:35:00.131Z,31.80
2022-09-03T15:37:36.718Z,31.70
2022-09-03T15:40:23.885Z,31.80
2022-09-03T15:42:57.816Z,31.80
2022-09-03T15:45:46.204Z,31.80
2022-09-03T15:48:59.743Z,32.10
2022-09-03T15:51:54.947Z,32.10
2022-09-03T15:54:36.871Z,32.10
2022-09-03T15:57:30.147Z,31.50
2022-09-03T16:00:22.628Z,31.20
2022-09-03T16:03:20.401Z,30.90
2022-09-03T16:06:02.839Z,30.70
2022-09-03T16:08:51.678Z,30.70
2022-09-03T16:11:32.727Z,30.80
2022-09-03T16:14:12.809Z,30.80
2022-09-03T16:17:07.388Z,30.80
2022-09-03T16:20:24.856Z,30.50
2022-09-03T16:23:06.023Z,30.30
2022-09-03T16:25:47.177Z,30.00
2022-09-03T16:28:19.077Z,29.80
2022-09-03T16:31:02.029Z,29.60
2022-09-03T16:33:46.933Z,29.40
2022-09-03T16:36:31.858Z,29.20
2022-09-03T16:39:37.325Z,29.00
2022-09-03T16:42:42.871Z,28.70
2022-09-03T17:03:25.109Z,27.90
2022-09-03T17:14:55.581Z,27.70
2022-09-03T17:20:37.595Z,27.50
2022-09-03T17:23:15.068Z,27.70
2022-09-03T17:26:00.503Z,27.70
2022-09-03T17:28:43.939Z,27.60
2022-09-03T17:31:44.432Z,27.60
2022-09-03T17:34:42.803Z,27.70
2022-09-03T17:37:40.664Z,27.50
2022-09-03T17:40:10.580Z,27.40
2022-09-03T17:43:29.962Z,27.30
2022-09-03T17:46:07.445Z,27.20
2022-09-03T17:48:49.817Z,27.10
2022-09-03T17:51:40.982Z,27.00
2022-09-03T17:54:38.546Z,26.90
2022-09-03T17:57:17.682Z,26.80
2022-09-03T17:59:57.901Z,26.70
2022-09-03T18:02:48.816Z,26.60
2022-09-03T18:05:21.764Z,26.50
2022-09-03T18:08:15.387Z,26.60
2022-09-03T18:11:09.002Z,26.70
2022-09-03T18:14:01.006Z,26.50
2022-09-03T18:16:46.692Z,26.50
2022-09-03T18:20:03.064Z,26.40
2022-09-03T18:23:00.887Z,26.30
2022-09-03T18:25:48.973Z,26.20
2022-09-03T18:28:38.680Z,26.20
2022-09-03T18:31:32.204Z,26.30
2022-09-03T18:34:17.753Z,26.30
2022-09-03T18:37:03.410Z,26.20
2022-09-03T18:39:48.985Z,26.10
2022-09-03T18:43:02.113Z,26.00
2022-09-03T18:46:46.251Z,25.90
2022-09-03T18:49:38.277Z,25.80
2022-09-03T18:52:36.045Z,25.80
2022-09-03T18:55:32.825Z,25.70
2022-09-03T18:58:18.962Z,25.70
2022-09-03T19:01:28.232Z,25.60
2022-09-03T19:04:26.323Z,25.70
2022-09-03T19:07:31.352Z,25.80
2022-09-03T19:10:41.170Z,25.70
2022-09-03T19:13:36.608Z,25.50
2022-09-03T19:16:31.720Z,25.40
2022-09-03T19:19:29.094Z,25.30
2022-09-03T19:22:24.924Z,25.30
2022-09-03T19:25:15.291Z,25.10
2022-09-03T19:28:34.188Z,25.10
2022-09-03T19:31:25.516Z,25.10
2022-09-03T19:34:19.859Z,25.00
2022-09-03T19:37:44.112Z,25.00
2022-09-03T19:40:43.908Z,25.00
2022-09-03T19:43:57.349Z,25.00
2022-09-03T19:47:06.068Z,24.80
2022-09-03T19:50:18.771Z,24.70
2022-09-03T19:53:06.979Z,24.70
2022-09-03T19:56:07.188Z,24.70
2022-09-03T19:58:57.204Z,24.60
2022-09-03T20:01:48.815Z,24.70
2022-09-03T20:04:36.026Z,24.70
2022-09-03T20:07:26.986Z,24.60
2022-09-03T20:10:16.489Z,24.50
2022-09-03T20:12:51.172Z,24.30
2022-09-03T20:15:23.108Z,24.10
2022-09-03T20:18:17.377Z,24.20
2022-09-03T20:20:52.199Z,24.10
2022-09-03T20:23:36.757Z,24.20
2022-09-03T20:26:28.940Z,24.10
2022-09-03T20:29:39.628Z,24.00
2022-09-03T20:32:14.305Z,24.00
2022-09-03T20:35:14.437Z,24.00
2022-09-03T20:37:50.480Z,24.00
2022-09-03T20:40:25.727Z,23.90
2022-09-03T20:42:58.950Z,23.80
2022-09-03T20:45:49.522Z,23.70
2022-09-03T20:48:39.143Z,23.70
2022-09-03T20:51:23.562Z,23.60
2022-09-03T20:54:08.948Z,23.70
2022-09-03T20:56:37.174Z,23.60
2022-09-03T20:59:14.327Z,23.60
2022-09-03T21:02:09.196Z,23.50
2022-09-03T21:05:13.669Z,23.40
2022-09-03T21:08:01.844Z,23.40
2022-09-03T21:10:51.267Z,23.40
2022-09-03T21:13:43.966Z,23.40
2022-09-03T21:16:41.278Z,23.30
2022-09-03T21:19:37.770Z,23.10
2022-09-03T21:22:29.414Z,23.00
2022-09-03T21:25:04.878Z,23.10
2022-09-03T21:27:51.749Z,23.00
2022-09-03T21:30:20.777Z,23.00
2022-09-03T21:33:13.199Z,22.90
2022-09-03T21:35:42.976Z,22.90
2022-09-03T21:38:21.512Z,22.90
2022-09-03T21:41:07.431Z,22.90
2022-09-03T21:43:54.019Z,22.90
2022-09-03T21:46:37.832Z,22.80
2022-09-03T21:49:11.832Z,22.80
2022-09-03T21:52:07.868Z,22.80
2022-09-03T21:54:36.068Z,22.70
2022-09-03T21:57:22.111Z,22.70
2022-09-03T22:00:09.252Z,22.70
2022-09-03T22:02:42.336Z,22.80
2022-09-03T22:05:09.801Z,22.80
2022-09-03T22:08:05.455Z,22.70
2022-09-03T22:11:04.424Z,22.60
2022-09-03T22:13:59.300Z,22.50
2022-09-03T22:16:43.415Z,22.40
2022-09-03T22:19:10.532Z,22.40
2022-09-03T22:21:45.857Z,22.40
2022-09-03T22:24:23.645Z,22.40
2022-09-03T22:27:19.439Z,22.50
2022-09-03T22:30:13.529Z,22.50
2022-09-03T22:32:40.617Z,22.40
2022-09-03T22:35:27.100Z,22.20
2022-09-03T22:38:11.180Z,22.20
2022-09-03T22:40:56.115Z,22.30
2022-09-03T22:43:57.516Z,22.20
2022-09-03T22:46:31.742Z,22.10
2022-09-03T22:49:19.019Z,22.10
2022-09-03T22:52:08.510Z,22.20
2022-09-03T22:55:21.446Z,22.20
2022-09-03T22:58:11.131Z,22.10
2022-09-03T23:00:46.903Z,22.10
2022-09-03T23:03:25.547Z,22.00
2022-09-03T23:06:04.904Z,22.00
2022-09-03T23:08:39.450Z,22.00
2022-09-03T23:11:27.114Z,22.00
2022-09-03T23:14:08.278Z,21.90
2022-09-03T23:16:50.134Z,21.80
2022-09-03T23:19:41.000Z,21.80
2022-09-03T23:22:25.728Z,21.70
2022-09-03T23:25:13.717Z,21.60
2022-09-03T23:27:53.617Z,21.60
2022-09-03T23:30:21.423Z,21.60
2022-09-03T23:32:55.341Z,21.50
2022-09-03T23:35:25.722Z,21.50
2022-09-03T23:38:23.378Z,21.50
2022-09-03T23:40:56.957Z,21.40
2022-09-03T23:43:47.327Z,21.40
2022-09-03T23:46:30.463Z,21.40
2022-09-03T23:49:23.213Z,21.30
2022-09-03T23:52:27.074Z,21.30
2022-09-03T23:55:21.539Z,21.30
2022-09-03T23:58:14.044Z,21.20
